Senath, Missouri
Current Conditions -  °F | °C
As of 4:53 AM on Thursday 23 Oct 2014 (Local Time) from KHKA Reporting Station
Clear Clear  
Wind Chill: 39°   Ceiling: Unl
Heat Index: 42°   Visibility: 10mi
Dew Point: 40°   Wind: 5mph
Humidity: 92%   Direction: 100°E
Pressure: 30.19"   Gusts: NA
Location:  36.13°N, 90.16°W
Report Text: KHKA 230953Z AUTO 10004KT 10SM CLR 06/04 A3019 RMK AO2 SLP224 T00560044
Loading
Personal Weather Stations






























Interactive Weather Map
Tropical Storm Tracking
New forecast layout! Learn more

10-Day Weather Forecast

Advertisements
Track Severe Weather on mobile